createdAt,value
2018-06-30T00:00:20.925Z,0.00
2018-06-30T00:01:20.921Z,0.00
2018-06-30T00:02:20.918Z,0.00
2018-06-30T00:03:20.931Z,0.00
2018-06-30T00:04:20.926Z,0.00
2018-06-30T00:05:20.942Z,0.00
2018-06-30T00:06:20.930Z,0.00
2018-06-30T00:07:20.940Z,0.00
2018-06-30T00:08:20.937Z,0.00
2018-06-30T00:09:20.943Z,0.00
2018-06-30T00:10:21.007Z,0.00
2018-06-30T00:11:20.961Z,0.00
2018-06-30T00:12:20.951Z,0.00
2018-06-30T00:13:20.953Z,0.00
2018-06-30T00:14:20.961Z,0.00
2018-06-30T00:15:20.965Z,0.00
2018-06-30T00:16:20.967Z,0.00
2018-06-30T00:17:20.963Z,0.00
2018-06-30T00:18:20.967Z,0.00
2018-06-30T00:19:20.971Z,0.00
2018-06-30T00:20:20.986Z,0.00
2018-06-30T00:21:20.975Z,0.00
2018-06-30T00:22:20.977Z,0.00
2018-06-30T00:23:20.978Z,0.00
2018-06-30T00:24:20.997Z,0.00
2018-06-30T00:25:22.078Z,0.00
2018-06-30T00:26:22.048Z,0.00
2018-06-30T00:27:22.088Z,0.00
2018-06-30T00:28:22.056Z,0.00
2018-06-30T00:29:21.107Z,0.00
2018-06-30T00:30:22.133Z,0.00
2018-06-30T00:31:21.002Z,0.00
2018-06-30T00:32:21.003Z,0.00
2018-06-30T00:33:21.006Z,0.00
2018-06-30T00:34:21.010Z,0.00
2018-06-30T00:35:21.012Z,0.00
2018-06-30T00:36:21.443Z,0.00
2018-06-30T00:37:21.019Z,0.00
2018-06-30T00:38:21.150Z,0.00
2018-06-30T00:39:21.021Z,0.00
2018-06-30T00:40:21.024Z,0.00
2018-06-30T00:41:21.030Z,0.00
2018-06-30T00:42:21.039Z,0.00
2018-06-30T00:43:21.037Z,0.00
2018-06-30T00:44:21.034Z,0.00
2018-06-30T00:45:21.055Z,0.00
2018-06-30T00:46:21.045Z,0.00
2018-06-30T00:47:21.042Z,0.00
2018-06-30T00:48:21.046Z,0.00
2018-06-30T00:49:21.049Z,0.00
2018-06-30T00:50:21.047Z,0.00
2018-06-30T00:51:21.054Z,0.00
2018-06-30T00:52:21.057Z,0.00
2018-06-30T00:53:21.055Z,0.00
2018-06-30T00:54:21.058Z,0.00
2018-06-30T00:55:21.062Z,0.00
2018-06-30T00:56:21.063Z,0.00
2018-06-30T00:57:21.066Z,0.00
2018-06-30T00:58:21.067Z,0.00
2018-06-30T00:59:21.070Z,0.00
2018-06-30T01:00:21.102Z,0.00
2018-06-30T01:01:21.081Z,0.00
2018-06-30T01:02:21.077Z,0.00
2018-06-30T01:03:21.080Z,0.00
2018-06-30T01:04:21.083Z,0.00
2018-06-30T01:05:21.083Z,0.00
2018-06-30T01:06:21.086Z,0.00
2018-06-30T01:07:21.089Z,0.00
2018-06-30T01:08:21.091Z,0.00
2018-06-30T01:09:21.095Z,0.00
2018-06-30T01:10:21.097Z,0.00
2018-06-30T01:11:21.099Z,0.00
2018-06-30T01:12:21.111Z,0.00
2018-06-30T01:13:21.112Z,0.00
2018-06-30T01:14:21.106Z,0.00
2018-06-30T01:15:21.123Z,0.00
2018-06-30T01:16:21.115Z,0.00
2018-06-30T01:17:21.114Z,0.00
2018-06-30T01:18:21.115Z,0.00
2018-06-30T01:19:21.118Z,0.00
2018-06-30T01:20:21.120Z,0.00
2018-06-30T01:21:21.131Z,0.00
2018-06-30T01:22:21.124Z,0.00
2018-06-30T01:23:21.127Z,0.00
2018-06-30T01:24:21.129Z,0.00
2018-06-30T01:25:21.132Z,0.00
2018-06-30T01:26:21.132Z,0.00
2018-06-30T01:27:21.136Z,0.00
2018-06-30T01:28:21.142Z,0.00
2018-06-30T01:29:21.140Z,0.00
2018-06-30T01:30:21.142Z,0.00
2018-06-30T01:31:21.144Z,0.00
2018-06-30T01:32:21.153Z,0.00
2018-06-30T01:33:21.147Z,0.00
2018-06-30T01:34:21.148Z,0.00
2018-06-30T01:35:21.156Z,0.00
2018-06-30T01:36:21.155Z,0.00
2018-06-30T01:37:21.158Z,0.00
2018-06-30T01:38:21.160Z,0.00
2018-06-30T01:39:21.160Z,0.00
2018-06-30T01:40:21.165Z,0.00
2018-06-30T01:41:21.173Z,0.00
2018-06-30T01:42:21.168Z,0.00
2018-06-30T01:43:21.175Z,0.00
2018-06-30T01:44:21.171Z,0.00
2018-06-30T01:45:21.174Z,0.00
2018-06-30T01:46:21.174Z,0.00
2018-06-30T01:47:21.180Z,0.00
2018-06-30T01:48:21.180Z,0.00
2018-06-30T01:49:21.204Z,0.00
2018-06-30T01:50:21.186Z,0.00
2018-06-30T01:51:21.187Z,0.00
2018-06-30T01:52:21.193Z,0.00
2018-06-30T01:53:21.189Z,0.00
2018-06-30T01:54:21.191Z,0.00
2018-06-30T01:55:21.194Z,0.00
2018-06-30T01:56:21.199Z,0.00
2018-06-30T01:57:21.202Z,0.00
2018-06-30T01:58:21.203Z,0.00
2018-06-30T01:59:21.203Z,0.00
2018-06-30T02:00:21.205Z,0.00
2018-06-30T02:01:21.206Z,0.00
2018-06-30T02:02:21.211Z,0.00
2018-06-30T02:03:21.209Z,0.00
2018-06-30T02:04:21.214Z,0.00
2018-06-30T02:05:21.214Z,0.00
2018-06-30T02:06:21.214Z,0.00
2018-06-30T02:07:21.218Z,0.00
2018-06-30T02:08:21.225Z,0.00
2018-06-30T02:09:21.222Z,0.00
2018-06-30T02:10:21.223Z,0.00
2018-06-30T02:11:21.230Z,0.00
2018-06-30T02:12:21.228Z,0.00
2018-06-30T02:13:21.233Z,0.00
2018-06-30T02:14:21.231Z,0.00
2018-06-30T02:15:21.234Z,0.00
2018-06-30T02:16:21.237Z,0.00
2018-06-30T02:17:21.242Z,0.00
2018-06-30T02:18:21.240Z,0.00
2018-06-30T02:19:21.257Z,0.00
2018-06-30T02:20:21.246Z,0.00
2018-06-30T02:21:21.252Z,0.00
2018-06-30T02:22:21.248Z,0.00
2018-06-30T02:23:21.249Z,0.00
2018-06-30T02:24:21.254Z,0.00
2018-06-30T02:25:22.550Z,0.00
2018-06-30T02:26:21.258Z,0.00
2018-06-30T02:27:21.262Z,0.00
2018-06-30T02:28:21.258Z,0.00
2018-06-30T02:29:21.262Z,0.00
2018-06-30T02:30:21.261Z,0.00
2018-06-30T02:31:21.263Z,0.00
2018-06-30T02:32:21.266Z,0.00
2018-06-30T02:33:21.271Z,0.00
2018-06-30T02:34:21.268Z,0.00
2018-06-30T02:35:21.294Z,0.00
2018-06-30T02:36:21.276Z,0.00
2018-06-30T02:37:21.276Z,0.00
2018-06-30T02:38:21.277Z,0.00
2018-06-30T02:39:21.296Z,0.00
2018-06-30T02:40:21.278Z,0.00
2018-06-30T02:41:21.280Z,0.00
2018-06-30T02:42:21.281Z,0.00
2018-06-30T02:43:21.282Z,0.00
2018-06-30T02:44:21.288Z,0.00
2018-06-30T02:45:21.288Z,0.00
2018-06-30T02:46:21.288Z,0.00
2018-06-30T02:47:21.288Z,0.00
2018-06-30T02:48:21.297Z,0.00
2018-06-30T02:49:21.292Z,0.00
2018-06-30T02:50:21.297Z,0.00
2018-06-30T02:51:21.295Z,0.00
2018-06-30T02:52:21.295Z,0.00
2018-06-30T02:53:21.300Z,0.00
2018-06-30T02:54:21.301Z,0.00
2018-06-30T02:55:21.298Z,0.00
2018-06-30T02:56:21.306Z,0.00
2018-06-30T02:57:21.302Z,0.00
2018-06-30T02:58:21.302Z,0.00
2018-06-30T02:59:21.302Z,0.00
2018-06-30T03:00:21.306Z,0.00
2018-06-30T03:01:21.305Z,0.00
2018-06-30T03:02:21.306Z,0.00
2018-06-30T03:03:21.308Z,0.00
2018-06-30T03:04:21.311Z,0.00
2018-06-30T03:05:21.310Z,0.00
2018-06-30T03:06:21.314Z,0.00
2018-06-30T03:07:21.313Z,0.00
2018-06-30T03:08:21.311Z,0.00
2018-06-30T03:09:21.313Z,0.00
2018-06-30T03:10:21.314Z,0.00
2018-06-30T03:11:21.318Z,0.00
2018-06-30T03:12:21.316Z,0.00
2018-06-30T03:13:21.322Z,0.00
2018-06-30T03:14:21.373Z,5.63
2018-06-30T03:15:21.319Z,5.63
2018-06-30T03:16:21.318Z,5.63
2018-06-30T03:17:21.321Z,5.63
2018-06-30T03:18:36.158Z,5.63
2018-06-30T03:19:21.321Z,5.63
2018-06-30T03:20:21.322Z,5.63
2018-06-30T03:21:21.328Z,5.63
2018-06-30T03:22:21.323Z,5.63
2018-06-30T03:23:21.324Z,5.63
2018-06-30T03:24:21.324Z,5.63
2018-06-30T03:25:21.325Z,5.63
2018-06-30T03:26:21.325Z,5.63
2018-06-30T03:27:21.328Z,5.63
2018-06-30T03:28:21.330Z,5.63
2018-06-30T03:29:21.328Z,5.63
2018-06-30T03:30:21.329Z,5.63
2018-06-30T03:31:21.335Z,5.63
2018-06-30T03:32:21.331Z,5.63
2018-06-30T03:33:21.330Z,5.63
2018-06-30T03:34:21.331Z,5.63
2018-06-30T03:35:21.331Z,5.63
2018-06-30T03:36:21.334Z,11.25
2018-06-30T03:37:21.334Z,11.25
2018-06-30T03:38:21.333Z,11.25
2018-06-30T03:39:21.335Z,11.25
2018-06-30T03:40:21.335Z,11.25
2018-06-30T03:41:21.340Z,11.25
2018-06-30T03:42:21.336Z,16.88
2018-06-30T03:43:21.338Z,16.88
2018-06-30T03:44:21.338Z,16.88
2018-06-30T03:45:21.341Z,16.88
2018-06-30T03:46:21.392Z,16.88
2018-06-30T03:47:21.341Z,16.88
2018-06-30T03:48:21.350Z,16.88
2018-06-30T03:49:21.341Z,16.88
2018-06-30T03:50:21.342Z,16.88
2018-06-30T03:51:21.344Z,16.88
2018-06-30T03:52:21.343Z,16.88
2018-06-30T03:53:21.344Z,11.25
2018-06-30T03:54:21.344Z,11.25
2018-06-30T03:55:21.345Z,11.25
2018-06-30T03:56:21.345Z,11.25
2018-06-30T03:57:21.346Z,11.25
2018-06-30T03:58:21.346Z,11.25
2018-06-30T03:59:21.347Z,11.25
2018-06-30T04:00:21.351Z,11.25
2018-06-30T04:01:21.351Z,11.25
2018-06-30T04:02:21.348Z,16.88
2018-06-30T04:03:21.348Z,16.88
2018-06-30T04:04:21.350Z,16.88
2018-06-30T04:05:21.351Z,16.88
2018-06-30T04:06:21.352Z,16.88
2018-06-30T04:07:21.352Z,16.88
2018-06-30T04:08:21.359Z,16.88
2018-06-30T04:09:21.356Z,16.88
2018-06-30T04:10:21.354Z,16.88
2018-06-30T04:11:21.368Z,22.50
2018-06-30T04:12:21.355Z,22.50
2018-06-30T04:13:21.355Z,28.13
2018-06-30T04:14:21.355Z,28.13
2018-06-30T04:15:21.371Z,33.75
2018-06-30T04:16:21.356Z,39.38
2018-06-30T04:17:21.360Z,45.00
2018-06-30T04:18:21.358Z,50.63
2018-06-30T04:19:21.356Z,56.25
2018-06-30T04:20:21.359Z,56.25
2018-06-30T04:21:21.359Z,61.88
2018-06-30T04:22:21.358Z,56.25
2018-06-30T04:23:21.358Z,56.25
2018-06-30T04:24:21.360Z,56.25
2018-06-30T04:25:21.360Z,50.63
2018-06-30T04:26:21.361Z,45.00
2018-06-30T04:27:21.361Z,39.38
2018-06-30T04:28:21.362Z,39.38
2018-06-30T04:29:21.362Z,39.38
2018-06-30T04:30:21.364Z,33.75
2018-06-30T04:31:21.373Z,33.75
2018-06-30T04:32:21.365Z,33.75
2018-06-30T04:33:21.366Z,33.75
2018-06-30T04:34:21.368Z,39.38
2018-06-30T04:35:21.373Z,45.00
2018-06-30T04:36:21.414Z,50.63
2018-06-30T04:37:21.368Z,50.63
2018-06-30T04:38:21.368Z,56.25
2018-06-30T04:39:21.368Z,56.25
2018-06-30T04:40:21.373Z,61.88
2018-06-30T04:41:21.372Z,56.25
2018-06-30T04:42:21.372Z,56.25
2018-06-30T04:43:21.371Z,50.63
2018-06-30T04:44:21.371Z,50.63
2018-06-30T04:45:21.372Z,50.63
2018-06-30T04:46:21.371Z,45.00
2018-06-30T04:47:21.372Z,45.00
2018-06-30T04:48:21.375Z,50.63
2018-06-30T04:49:21.372Z,56.25
2018-06-30T04:50:21.379Z,67.50
2018-06-30T04:51:21.377Z,73.13
2018-06-30T04:52:21.374Z,140.63
2018-06-30T04:53:21.374Z,140.63
2018-06-30T04:54:21.382Z,95.63
2018-06-30T04:55:21.375Z,84.38
2018-06-30T04:56:21.375Z,78.75
2018-06-30T04:57:21.377Z,67.50
2018-06-30T04:58:21.375Z,67.50
2018-06-30T04:59:21.376Z,73.13
2018-06-30T05:00:21.377Z,67.50
2018-06-30T05:01:21.377Z,67.50
2018-06-30T05:02:21.381Z,61.88
2018-06-30T05:03:21.377Z,56.25
2018-06-30T05:04:21.380Z,118.13
2018-06-30T05:05:21.379Z,67.50
2018-06-30T05:06:21.386Z,78.75
2018-06-30T05:07:21.383Z,185.63
2018-06-30T05:08:21.379Z,146.25
2018-06-30T05:09:21.380Z,168.75
2018-06-30T05:10:21.379Z,168.75
2018-06-30T05:11:21.379Z,225.00
2018-06-30T05:12:21.381Z,106.88
2018-06-30T05:13:21.386Z,84.38
2018-06-30T05:14:21.382Z,78.75
2018-06-30T05:15:21.382Z,73.13
2018-06-30T05:16:21.386Z,157.50
2018-06-30T05:17:21.384Z,495.00
2018-06-30T05:18:21.384Z,84.38
2018-06-30T05:19:21.388Z,84.38
2018-06-30T05:20:21.389Z,129.38
2018-06-30T05:21:21.388Z,506.25
2018-06-30T05:22:21.387Z,337.50
2018-06-30T05:23:21.391Z,78.75
2018-06-30T05:24:21.390Z,67.50
2018-06-30T05:25:21.390Z,73.13
2018-06-30T05:26:21.394Z,78.75
2018-06-30T05:27:21.393Z,399.38
2018-06-30T05:28:21.393Z,360.00
2018-06-30T05:29:21.396Z,146.25
2018-06-30T05:30:21.403Z,90.00
2018-06-30T05:31:21.396Z,78.75
2018-06-30T05:32:21.400Z,73.13
2018-06-30T05:33:21.418Z,56.25
2018-06-30T05:34:21.402Z,56.25
2018-06-30T05:35:21.401Z,61.88
2018-06-30T05:36:21.403Z,73.13
2018-06-30T05:37:21.408Z,90.00
2018-06-30T05:38:21.407Z,174.38
2018-06-30T05:39:21.406Z,573.75
2018-06-30T05:40:21.407Z,135.00
2018-06-30T05:41:21.408Z,123.75
2018-06-30T05:42:21.407Z,286.88
2018-06-30T05:43:21.409Z,247.50
2018-06-30T05:44:21.411Z,270.00
2018-06-30T05:45:21.412Z,281.25
2018-06-30T05:46:21.415Z,286.88
2018-06-30T05:47:21.414Z,292.50
2018-06-30T05:48:21.418Z,236.25
2018-06-30T05:49:21.416Z,264.38
2018-06-30T05:50:21.421Z,275.63
2018-06-30T05:51:21.418Z,281.25
2018-06-30T05:52:21.421Z,286.88
2018-06-30T05:53:21.422Z,123.75
2018-06-30T05:54:21.440Z,292.50
2018-06-30T05:55:21.424Z,106.88
2018-06-30T05:56:21.424Z,320.63
2018-06-30T05:57:21.430Z,410.63
2018-06-30T05:58:21.430Z,433.13
2018-06-30T05:59:21.467Z,534.38
2018-06-30T06:00:21.433Z,450.00
2018-06-30T06:01:21.437Z,337.50
2018-06-30T06:02:21.436Z,270.00
2018-06-30T06:03:21.437Z,298.13
2018-06-30T06:04:21.439Z,298.13
2018-06-30T06:05:21.443Z,303.75
2018-06-30T06:06:21.442Z,298.13
2018-06-30T06:07:21.444Z,292.50
2018-06-30T06:08:21.447Z,298.13
2018-06-30T06:09:21.471Z,298.13
2018-06-30T06:10:21.463Z,292.50
2018-06-30T06:11:21.452Z,292.50
2018-06-30T06:12:21.453Z,298.13
2018-06-30T06:13:21.457Z,298.13
2018-06-30T06:14:21.456Z,298.13
2018-06-30T06:15:21.537Z,478.13
2018-06-30T06:16:21.461Z,658.13
2018-06-30T06:17:21.467Z,579.38
2018-06-30T06:18:21.464Z,450.00
2018-06-30T06:19:21.466Z,382.50
2018-06-30T06:20:21.469Z,517.50
2018-06-30T06:21:21.471Z,472.50
2018-06-30T06:22:21.477Z,303.75
2018-06-30T06:23:21.525Z,292.50
2018-06-30T06:24:21.479Z,292.50
2018-06-30T06:25:21.501Z,281.25
2018-06-30T06:26:21.482Z,281.25
2018-06-30T06:27:21.484Z,275.63
2018-06-30T06:28:21.492Z,275.63
2018-06-30T06:29:21.488Z,275.63
2018-06-30T06:30:21.491Z,281.25
2018-06-30T06:31:21.498Z,281.25
2018-06-30T06:32:21.539Z,281.25
2018-06-30T06:33:21.498Z,225.00
2018-06-30T06:34:21.499Z,275.63
2018-06-30T06:35:21.501Z,281.25
2018-06-30T06:36:21.504Z,270.00
2018-06-30T06:37:21.506Z,270.00
2018-06-30T06:38:21.509Z,270.00
2018-06-30T06:39:21.515Z,264.38
2018-06-30T06:40:21.515Z,225.00
2018-06-30T06:41:21.516Z,73.13
2018-06-30T06:42:21.518Z,67.50
2018-06-30T06:43:21.561Z,106.88
2018-06-30T06:44:21.524Z,78.75
2018-06-30T06:45:21.529Z,241.88
2018-06-30T06:46:21.531Z,270.00
2018-06-30T06:47:21.532Z,258.75
2018-06-30T06:48:21.533Z,253.13
2018-06-30T06:49:21.534Z,230.63
2018-06-30T06:50:21.536Z,225.00
2018-06-30T06:51:21.538Z,219.38
2018-06-30T06:52:21.541Z,219.38
2018-06-30T06:53:21.546Z,213.75
2018-06-30T06:54:21.544Z,202.50
2018-06-30T06:55:21.547Z,196.88
2018-06-30T06:56:21.598Z,196.88
2018-06-30T06:57:21.551Z,191.25
2018-06-30T06:58:21.553Z,180.00
2018-06-30T06:59:21.556Z,180.00
2018-06-30T07:00:21.557Z,174.38
2018-06-30T07:01:21.560Z,174.38
2018-06-30T07:02:21.564Z,168.75
2018-06-30T07:03:21.562Z,157.50
2018-06-30T07:04:21.567Z,151.88
2018-06-30T07:05:21.570Z,140.63
2018-06-30T07:06:21.570Z,129.38
2018-06-30T07:07:21.582Z,112.50
2018-06-30T07:08:21.576Z,101.25
2018-06-30T07:09:21.577Z,95.63
2018-06-30T07:10:21.580Z,90.00
2018-06-30T07:11:21.582Z,84.38
2018-06-30T07:12:21.582Z,78.75
2018-06-30T07:13:21.585Z,73.13
2018-06-30T07:14:21.586Z,73.13
2018-06-30T07:15:21.593Z,67.50
2018-06-30T07:16:21.591Z,67.50
2018-06-30T07:17:21.593Z,67.50
2018-06-30T07:18:21.594Z,61.88
2018-06-30T07:19:21.632Z,61.88
2018-06-30T07:20:21.599Z,61.88
2018-06-30T07:21:21.608Z,61.88
2018-06-30T07:22:21.785Z,61.88
2018-06-30T07:23:21.607Z,61.88
2018-06-30T07:24:21.610Z,61.88
2018-06-30T07:25:21.609Z,56.25
2018-06-30T07:26:21.615Z,56.25
2018-06-30T07:27:21.611Z,56.25
2018-06-30T07:28:21.616Z,56.25
2018-06-30T07:29:21.623Z,56.25
2018-06-30T07:30:21.618Z,56.25
2018-06-30T07:31:21.621Z,56.25
2018-06-30T07:32:21.655Z,56.25
2018-06-30T07:33:21.625Z,56.25
2018-06-30T07:34:21.625Z,56.25
2018-06-30T07:35:21.628Z,56.25
2018-06-30T07:36:21.630Z,56.25
2018-06-30T07:37:21.643Z,56.25
2018-06-30T07:38:21.634Z,56.25
2018-06-30T07:39:21.636Z,56.25
2018-06-30T07:40:21.666Z,56.25
2018-06-30T07:41:21.642Z,56.25
2018-06-30T07:42:21.640Z,56.25
2018-06-30T07:43:21.664Z,56.25
2018-06-30T07:44:21.645Z,56.25
2018-06-30T07:45:21.648Z,56.25
2018-06-30T07:46:21.647Z,56.25
2018-06-30T07:47:21.653Z,56.25
2018-06-30T07:48:21.654Z,56.25
2018-06-30T07:49:21.656Z,56.25
2018-06-30T07:50:21.736Z,56.25
2018-06-30T07:51:21.658Z,56.25
2018-06-30T07:52:21.667Z,56.25
2018-06-30T07:53:21.662Z,56.25
2018-06-30T07:54:21.666Z,56.25
2018-06-30T07:55:21.664Z,56.25
2018-06-30T07:56:21.685Z,56.25
2018-06-30T07:57:21.695Z,56.25
2018-06-30T07:58:21.678Z,50.63
2018-06-30T07:59:21.671Z,50.63
2018-06-30T08:00:21.677Z,50.63
2018-06-30T08:01:21.675Z,50.63
2018-06-30T08:02:21.676Z,50.63
2018-06-30T08:03:21.678Z,50.63
2018-06-30T08:04:21.688Z,50.63
2018-06-30T08:05:21.686Z,50.63
2018-06-30T08:06:21.740Z,50.63
2018-06-30T08:07:21.752Z,50.63
2018-06-30T08:08:21.687Z,50.63
2018-06-30T08:09:21.689Z,50.63
2018-06-30T08:10:21.690Z,56.25
2018-06-30T08:11:21.697Z,56.25
2018-06-30T08:12:21.695Z,56.25
2018-06-30T08:13:21.696Z,56.25
2018-06-30T08:14:21.698Z,56.25
2018-06-30T08:15:21.700Z,56.25
2018-06-30T08:16:21.710Z,56.25
2018-06-30T08:17:21.705Z,56.25
2018-06-30T08:18:21.707Z,56.25
2018-06-30T08:19:21.708Z,56.25
2018-06-30T08:20:21.710Z,56.25
2018-06-30T08:21:21.711Z,56.25
2018-06-30T08:22:21.712Z,56.25
2018-06-30T08:23:21.713Z,56.25
2018-06-30T08:24:21.715Z,61.88
2018-06-30T08:25:21.717Z,61.88
2018-06-30T08:26:21.718Z,61.88
2018-06-30T08:27:21.722Z,61.88
2018-06-30T08:28:21.722Z,61.88
2018-06-30T08:29:21.725Z,61.88
2018-06-30T08:30:21.730Z,67.50
2018-06-30T08:31:21.733Z,67.50
2018-06-30T08:32:21.747Z,118.13
2018-06-30T08:33:21.733Z,196.88
2018-06-30T08:34:21.735Z,225.00
2018-06-30T08:35:21.788Z,208.13
2018-06-30T08:36:21.774Z,213.75
2018-06-30T08:37:21.741Z,180.00
2018-06-30T08:38:21.743Z,196.88
2018-06-30T08:39:21.745Z,264.38
2018-06-30T08:40:21.752Z,303.75
2018-06-30T08:41:21.752Z,309.38
2018-06-30T08:42:21.754Z,320.63
2018-06-30T08:43:21.757Z,326.25
2018-06-30T08:44:21.763Z,331.88
2018-06-30T08:45:21.766Z,343.13
2018-06-30T08:46:21.775Z,354.38
2018-06-30T08:47:21.784Z,365.63
2018-06-30T08:48:21.808Z,371.25
2018-06-30T08:49:21.790Z,376.88
2018-06-30T08:50:21.788Z,388.13
2018-06-30T08:51:21.793Z,393.75
2018-06-30T08:52:21.803Z,405.00
2018-06-30T08:53:21.812Z,416.25
2018-06-30T08:54:21.812Z,427.50
2018-06-30T08:55:21.873Z,438.75
2018-06-30T08:56:21.824Z,455.63
2018-06-30T08:57:21.825Z,461.25
2018-06-30T08:58:21.833Z,472.50
2018-06-30T08:59:21.836Z,483.75
2018-06-30T09:00:21.843Z,500.63
2018-06-30T09:01:21.856Z,511.88
2018-06-30T09:02:21.855Z,534.38
2018-06-30T09:03:21.862Z,534.38
2018-06-30T09:04:21.869Z,545.63
2018-06-30T09:05:21.879Z,568.13
2018-06-30T09:06:21.965Z,573.75
2018-06-30T09:07:21.889Z,585.00
2018-06-30T09:08:21.894Z,601.88
2018-06-30T09:09:21.899Z,618.75
2018-06-30T09:10:21.906Z,630.00
2018-06-30T09:11:21.916Z,646.88
2018-06-30T09:12:22.010Z,658.13
2018-06-30T09:13:21.928Z,675.00
2018-06-30T09:14:21.937Z,680.63
2018-06-30T09:15:21.941Z,691.88
2018-06-30T09:16:21.951Z,703.13
2018-06-30T09:17:21.957Z,720.00
2018-06-30T09:18:21.969Z,731.25
2018-06-30T09:19:21.974Z,748.13
2018-06-30T09:20:21.987Z,759.38
2018-06-30T09:21:22.005Z,770.63
2018-06-30T09:22:21.993Z,787.50
2018-06-30T09:23:22.024Z,804.38
2018-06-30T09:24:22.010Z,821.25
2018-06-30T09:25:22.017Z,843.75
2018-06-30T09:26:22.024Z,855.00
2018-06-30T09:27:22.032Z,871.88
2018-06-30T09:28:22.041Z,888.75
2018-06-30T09:29:22.050Z,905.63
2018-06-30T09:30:22.056Z,922.50
2018-06-30T09:31:22.068Z,939.38
2018-06-30T09:32:22.075Z,956.25
2018-06-30T09:33:22.083Z,973.13
2018-06-30T09:34:22.091Z,978.75
2018-06-30T09:35:22.100Z,990.00
2018-06-30T09:36:22.115Z,1006.88
2018-06-30T09:37:22.120Z,1018.13
2018-06-30T09:38:22.133Z,1029.38
2018-06-30T09:39:22.140Z,1046.25
2018-06-30T09:40:22.147Z,1051.88
2018-06-30T09:41:22.155Z,1063.13
2018-06-30T09:42:22.168Z,1074.38
2018-06-30T09:43:22.192Z,1091.25
2018-06-30T09:44:22.243Z,1102.50
2018-06-30T09:45:22.194Z,1113.75
2018-06-30T09:46:22.207Z,1125.00
2018-06-30T09:47:22.212Z,1130.63
2018-06-30T09:48:22.221Z,1153.13
2018-06-30T09:49:22.230Z,1153.13
2018-06-30T09:50:22.251Z,1170.00
2018-06-30T09:51:22.250Z,1181.25
2018-06-30T09:52:22.257Z,1203.75
2018-06-30T09:53:22.268Z,1231.88
2018-06-30T09:54:22.277Z,1248.75
2018-06-30T09:55:22.287Z,1260.00
2018-06-30T09:56:22.303Z,1260.00
2018-06-30T09:57:22.317Z,1271.25
2018-06-30T09:58:22.318Z,1293.75
2018-06-30T09:59:22.325Z,1293.75
2018-06-30T10:00:22.335Z,1305.00
2018-06-30T10:01:22.351Z,1321.88
2018-06-30T10:02:22.355Z,1316.25
2018-06-30T10:03:22.369Z,1321.88
2018-06-30T10:04:22.375Z,1321.88
2018-06-30T10:05:22.387Z,1333.13
2018-06-30T10:06:22.393Z,1321.88
2018-06-30T10:07:22.424Z,1321.88
2018-06-30T10:08:22.413Z,1310.63
2018-06-30T10:09:22.424Z,1310.63
2018-06-30T10:10:22.432Z,1310.63
2018-06-30T10:11:22.478Z,1321.88
2018-06-30T10:12:22.457Z,1338.75
2018-06-30T10:13:22.468Z,1355.63
2018-06-30T10:14:22.472Z,1378.13
2018-06-30T10:15:22.483Z,1406.25
2018-06-30T10:16:22.498Z,1445.63
2018-06-30T10:17:22.506Z,1462.50
2018-06-30T10:18:22.538Z,1479.38
2018-06-30T10:19:22.535Z,1496.25
2018-06-30T10:20:22.537Z,1513.13
2018-06-30T10:21:22.549Z,1513.13
2018-06-30T10:22:22.556Z,1513.13
2018-06-30T10:23:22.574Z,1518.75
2018-06-30T10:24:22.581Z,1524.38
2018-06-30T10:25:22.614Z,1507.50
2018-06-30T10:26:22.608Z,1490.63
2018-06-30T10:27:22.607Z,1485.00
2018-06-30T10:28:22.624Z,1490.63
2018-06-30T10:29:22.629Z,1485.00
2018-06-30T10:30:22.641Z,1485.00
2018-06-30T10:31:22.716Z,1507.50
2018-06-30T10:32:22.674Z,1541.25
2018-06-30T10:33:22.676Z,1558.13
2018-06-30T10:34:22.680Z,1580.63
2018-06-30T10:35:22.689Z,1608.75
2018-06-30T10:36:22.701Z,1642.50
2018-06-30T10:37:22.756Z,1676.25
2018-06-30T10:38:22.719Z,1670.63
2018-06-30T10:39:22.731Z,1670.63
2018-06-30T10:40:22.756Z,1665.00
2018-06-30T10:41:22.752Z,1665.00
2018-06-30T10:42:22.762Z,1659.38
2018-06-30T10:43:22.779Z,1665.00
2018-06-30T10:44:22.795Z,1676.25
2018-06-30T10:45:22.796Z,1698.75
2018-06-30T10:46:22.803Z,1710.00
2018-06-30T10:47:22.813Z,1710.00
2018-06-30T10:48:22.824Z,1738.13
2018-06-30T10:49:22.846Z,1755.00
2018-06-30T10:50:22.845Z,1766.25
2018-06-30T10:51:22.855Z,1771.88
2018-06-30T10:52:22.867Z,1771.88
2018-06-30T10:53:22.876Z,1788.75
2018-06-30T10:54:22.886Z,1800.00
2018-06-30T10:55:22.918Z,1816.88
2018-06-30T10:56:23.020Z,1833.75
2018-06-30T10:57:22.923Z,1850.63
2018-06-30T10:58:22.932Z,1856.25
2018-06-30T10:59:22.940Z,1850.63
2018-06-30T11:00:23.050Z,1845.00
2018-06-30T11:01:22.965Z,1822.50
2018-06-30T11:02:23.046Z,1816.88
2018-06-30T11:03:22.992Z,1816.88
2018-06-30T11:04:23.087Z,1811.25
2018-06-30T11:05:23.713Z,1811.25
2018-06-30T11:06:23.032Z,1833.75
2018-06-30T11:07:23.028Z,1867.50
2018-06-30T11:08:23.046Z,1884.38
2018-06-30T11:09:23.050Z,1923.75
2018-06-30T11:10:23.060Z,1929.38
2018-06-30T11:11:23.072Z,1935.00
2018-06-30T11:12:23.087Z,1940.63
2018-06-30T11:13:23.715Z,1946.25
2018-06-30T11:14:24.117Z,1940.63
2018-06-30T11:15:23.115Z,1946.25
2018-06-30T11:16:23.125Z,1957.50
2018-06-30T11:17:23.136Z,1963.13
2018-06-30T11:18:23.146Z,1968.75
2018-06-30T11:19:23.159Z,1985.63
2018-06-30T11:20:23.168Z,1980.00
2018-06-30T11:21:23.182Z,1996.88
2018-06-30T11:22:23.872Z,2008.13
2018-06-30T11:23:24.011Z,2025.00
2018-06-30T11:24:23.540Z,2036.25
2018-06-30T11:25:23.223Z,2036.25
2018-06-30T11:26:23.243Z,2036.25
2018-06-30T11:27:23.246Z,2047.50
2018-06-30T11:28:23.263Z,2053.13
2018-06-30T11:29:23.355Z,2041.88
2018-06-30T11:30:23.318Z,2047.50
2018-06-30T11:31:23.575Z,2053.13
2018-06-30T11:32:23.298Z,2053.13
2018-06-30T11:33:23.310Z,2053.13
2018-06-30T11:34:23.318Z,2047.50
2018-06-30T11:35:23.331Z,2041.88
2018-06-30T11:36:23.347Z,2053.13
2018-06-30T11:37:23.357Z,2053.13
2018-06-30T11:38:23.365Z,2047.50
2018-06-30T11:39:23.376Z,2030.63
2018-06-30T11:40:23.387Z,2008.13
2018-06-30T11:41:23.396Z,1985.63
2018-06-30T11:42:23.407Z,1980.00
2018-06-30T11:43:23.417Z,1957.50
2018-06-30T11:44:23.428Z,1923.75
2018-06-30T11:45:23.440Z,1929.38
2018-06-30T11:46:23.456Z,1946.25
2018-06-30T11:47:23.461Z,1974.38
2018-06-30T11:48:23.473Z,2008.13
2018-06-30T11:49:23.485Z,2008.13
2018-06-30T11:50:23.538Z,1996.88
2018-06-30T11:51:23.509Z,1980.00
2018-06-30T11:52:23.527Z,1974.38
2018-06-30T11:53:23.530Z,1951.88
2018-06-30T11:54:23.538Z,1940.63
2018-06-30T11:55:23.549Z,1935.00
2018-06-30T11:56:23.562Z,1974.38
2018-06-30T11:57:23.574Z,2013.75
2018-06-30T11:58:23.583Z,2036.25
2018-06-30T11:59:23.602Z,2070.00
2018-06-30T12:00:23.605Z,2098.13
2018-06-30T12:01:23.640Z,2115.00
2018-06-30T12:02:23.627Z,2126.25
2018-06-30T12:03:23.671Z,2143.13
2018-06-30T12:04:24.739Z,2148.75
2018-06-30T12:05:23.665Z,2137.50
2018-06-30T12:06:23.673Z,2143.13
2018-06-30T12:07:23.690Z,2154.38
2018-06-30T12:08:23.695Z,2154.38
2018-06-30T12:09:23.818Z,2154.38
2018-06-30T12:10:23.719Z,2143.13
2018-06-30T12:11:23.730Z,2143.13
2018-06-30T12:12:23.740Z,2109.38
2018-06-30T12:13:23.755Z,2092.50
2018-06-30T12:14:23.764Z,2086.88
2018-06-30T12:15:23.776Z,2098.13
2018-06-30T12:16:23.786Z,2081.25
2018-06-30T12:17:23.797Z,2070.00
2018-06-30T12:18:23.809Z,2092.50
2018-06-30T12:19:23.819Z,2115.00
2018-06-30T12:20:23.831Z,2154.38
2018-06-30T12:21:23.847Z,2176.88
2018-06-30T12:22:23.852Z,2176.88
2018-06-30T12:23:23.864Z,2193.75
2018-06-30T12:24:23.874Z,2210.63
2018-06-30T12:25:23.889Z,2216.25
2018-06-30T12:26:23.903Z,2210.63
2018-06-30T12:27:23.907Z,2205.00
2018-06-30T12:28:23.925Z,2210.63
2018-06-30T12:29:23.932Z,2210.63
2018-06-30T12:30:23.945Z,2216.25
2018-06-30T12:31:23.952Z,2216.25
2018-06-30T12:32:24.122Z,2216.25
2018-06-30T12:33:23.977Z,2227.50
2018-06-30T12:34:23.985Z,2244.38
2018-06-30T12:35:23.996Z,2250.00
2018-06-30T12:36:24.007Z,2255.63
2018-06-30T12:37:24.052Z,2266.88
2018-06-30T12:38:24.033Z,2244.38
2018-06-30T12:39:24.039Z,2250.00
2018-06-30T12:40:24.052Z,2238.75
2018-06-30T12:41:24.062Z,2244.38
2018-06-30T12:42:24.072Z,2221.88